createdAt,value
2023-05-17T00:01:10.114Z,3.10
2023-05-17T00:03:13.600Z,2.97
2023-05-17T00:05:17.019Z,3.00
2023-05-17T00:07:35.169Z,3.40
2023-05-17T00:09:52.312Z,2.80
2023-05-17T00:12:07.512Z,3.43
2023-05-17T00:14:16.002Z,3.10
2023-05-17T00:16:20.928Z,3.37
2023-05-17T00:18:24.152Z,3.40
2023-05-17T00:20:27.519Z,3.40
2023-05-17T00:22:31.108Z,3.33
2023-05-17T00:24:34.567Z,3.73
2023-05-17T00:26:37.725Z,3.30
2023-05-17T00:28:41.041Z,3.30
2023-05-17T00:30:50.661Z,3.23
2023-05-17T00:33:01.302Z,3.87
2023-05-17T00:35:29.123Z,3.33
2023-05-17T00:37:35.845Z,3.50
2023-05-17T00:39:39.546Z,3.40
2023-05-17T00:41:43.267Z,3.90
2023-05-17T00:43:46.808Z,3.53
2023-05-17T00:45:51.746Z,3.20
2023-05-17T00:47:56.714Z,2.90
2023-05-17T00:50:00.312Z,3.03
2023-05-17T00:52:06.889Z,3.30
2023-05-17T00:54:10.720Z,3.23
2023-05-17T00:56:14.432Z,3.47
2023-05-17T00:58:17.924Z,3.53
2023-05-17T01:00:21.551Z,3.50
2023-05-17T01:02:25.772Z,3.07
2023-05-17T01:04:31.346Z,3.40
2023-05-17T01:06:34.643Z,3.30
2023-05-17T01:08:37.887Z,3.40
2023-05-17T01:10:47.674Z,3.40
2023-05-17T01:13:03.053Z,3.47
2023-05-17T01:15:15.436Z,3.07
2023-05-17T01:17:23.692Z,3.27
2023-05-17T01:19:50.946Z,4.13
2023-05-17T01:22:05.227Z,3.43
2023-05-17T01:24:21.310Z,3.30
2023-05-17T01:26:38.489Z,3.30
2023-05-17T01:28:42.612Z,3.50
2023-05-17T01:30:51.033Z,3.40
2023-05-17T01:32:57.629Z,3.13
2023-05-17T01:35:04.921Z,3.57
2023-05-17T01:37:13.701Z,3.50
2023-05-17T01:39:22.505Z,3.80
2023-05-17T01:41:30.547Z,3.87
2023-05-17T01:44:01.909Z,3.50
2023-05-17T01:46:15.232Z,3.47
2023-05-17T01:48:26.383Z,4.03
2023-05-17T01:50:35.151Z,4.27
2023-05-17T01:52:45.361Z,4.00
2023-05-17T01:55:00.538Z,4.03
2023-05-17T01:57:07.719Z,4.20
2023-05-17T01:59:16.376Z,4.20
2023-05-17T02:01:26.728Z,4.17
2023-05-17T02:03:30.583Z,3.70
2023-05-17T02:05:33.601Z,4.27
2023-05-17T02:07:42.280Z,3.97
2023-05-17T02:09:46.149Z,4.20
2023-05-17T02:11:49.189Z,4.00
2023-05-17T02:13:52.744Z,3.90
2023-05-17T02:16:03.798Z,3.90
2023-05-17T02:18:07.415Z,4.00
2023-05-17T02:20:11.706Z,3.83
2023-05-17T02:22:17.069Z,4.27
2023-05-17T02:24:20.342Z,3.93
2023-05-17T02:26:26.245Z,3.93
2023-05-17T02:28:29.157Z,4.23
2023-05-17T02:30:34.327Z,4.40
2023-05-17T02:32:38.793Z,4.50
2023-05-17T02:34:41.892Z,4.57
2023-05-17T02:36:45.063Z,4.70
2023-05-17T02:38:48.208Z,4.20
2023-05-17T02:40:51.334Z,4.53
2023-05-17T02:42:54.356Z,4.63
2023-05-17T02:44:57.993Z,4.23
2023-05-17T02:47:00.990Z,4.30
2023-05-17T02:49:05.334Z,4.60
2023-05-17T02:51:08.330Z,4.40
2023-05-17T02:53:11.394Z,4.03
2023-05-17T02:55:14.251Z,4.80
2023-05-17T02:57:17.159Z,4.50
2023-05-17T02:59:20.249Z,4.67
2023-05-17T03:01:23.431Z,4.30
2023-05-17T03:03:26.649Z,4.70
2023-05-17T03:05:31.323Z,4.23
2023-05-17T03:07:34.281Z,4.93
2023-05-17T03:09:37.576Z,4.40
2023-05-17T03:11:40.682Z,4.53
2023-05-17T03:13:43.711Z,4.10
2023-05-17T03:15:46.702Z,4.23
2023-05-17T03:17:49.690Z,4.40
2023-05-17T03:19:52.941Z,4.77
2023-05-17T03:21:57.574Z,4.37
2023-05-17T03:24:00.772Z,4.70
2023-05-17T03:26:03.904Z,4.67
2023-05-17T03:28:07.004Z,4.20
2023-05-17T03:30:10.719Z,4.60
2023-05-17T03:32:18.469Z,4.47
2023-05-17T03:34:21.830Z,4.10
2023-05-17T03:36:27.134Z,4.10
2023-05-17T03:38:31.893Z,4.80
2023-05-17T03:40:38.267Z,4.70
2023-05-17T03:42:41.592Z,4.90
2023-05-17T03:44:47.819Z,4.20
2023-05-17T03:46:54.399Z,4.43
2023-05-17T03:48:57.833Z,4.70
2023-05-17T03:51:01.829Z,4.37
2023-05-17T03:53:12.585Z,4.87
2023-05-17T03:56:09.841Z,5.20
2023-05-17T03:58:30.906Z,4.17
2023-05-17T04:18:06.042Z,4.47
2023-05-17T04:23:27.355Z,4.30
2023-05-17T04:33:24.775Z,4.23
2023-05-17T04:38:29.757Z,3.80
2023-05-17T04:41:20.914Z,4.80
2023-05-17T04:43:23.979Z,4.33
2023-05-17T04:45:27.000Z,4.70
2023-05-17T04:47:30.140Z,4.77
2023-05-17T04:49:33.243Z,5.20
2023-05-17T04:51:36.086Z,4.50
2023-05-17T04:53:38.959Z,4.70
2023-05-17T04:55:41.810Z,4.13
2023-05-17T04:57:46.128Z,4.77
2023-05-17T04:59:48.934Z,4.27
2023-05-17T05:01:51.780Z,4.77
2023-05-17T05:03:54.707Z,4.67
2023-05-17T05:05:57.819Z,4.30
2023-05-17T05:08:00.782Z,4.93
2023-05-17T05:10:03.704Z,4.70
2023-05-17T05:12:07.577Z,4.43
2023-05-17T05:14:11.820Z,4.63
2023-05-17T05:16:14.899Z,4.67
2023-05-17T05:18:17.890Z,4.53
2023-05-17T05:20:21.003Z,3.83
2023-05-17T05:22:23.916Z,4.00
2023-05-17T05:24:26.761Z,4.37
2023-05-17T05:26:29.613Z,4.30
2023-05-17T05:28:32.475Z,4.37
2023-05-17T05:30:36.785Z,4.20
2023-05-17T05:32:39.884Z,3.90
2023-05-17T05:34:42.832Z,4.43
2023-05-17T05:36:45.746Z,4.20
2023-05-17T05:38:49.079Z,4.67
2023-05-17T05:40:51.980Z,4.23
2023-05-17T05:42:54.897Z,3.67
2023-05-17T05:44:58.233Z,4.10
2023-05-17T05:47:02.499Z,4.10
2023-05-17T05:49:05.593Z,3.90
2023-05-17T05:51:08.727Z,4.07
2023-05-17T05:53:18.861Z,4.00
2023-05-17T05:55:22.749Z,4.50
2023-05-17T05:57:25.648Z,3.83
2023-05-17T05:59:28.672Z,4.37
2023-05-17T06:01:31.706Z,4.57
2023-05-17T06:03:36.207Z,4.20
2023-05-17T06:05:40.409Z,4.10
2023-05-17T06:07:44.798Z,4.20
2023-05-17T06:09:47.971Z,4.00
2023-05-17T06:11:53.755Z,4.37
2023-05-17T06:13:56.828Z,4.13
2023-05-17T06:16:00.281Z,4.33
2023-05-17T06:18:03.906Z,4.30
2023-05-17T06:20:10.343Z,4.00
2023-05-17T06:22:13.335Z,3.70
2023-05-17T06:24:16.859Z,4.43
2023-05-17T06:26:19.800Z,4.00
2023-05-17T06:28:22.682Z,3.87
2023-05-17T06:32:30.658Z,4.07
2023-05-17T06:34:33.917Z,4.20
2023-05-17T06:36:38.705Z,4.23
2023-05-17T06:38:41.917Z,3.50
2023-05-17T06:40:45.236Z,3.83
2023-05-17T06:42:48.335Z,4.13
2023-05-17T06:44:51.531Z,3.70
2023-05-17T06:46:54.583Z,4.03
2023-05-17T06:48:57.852Z,4.17
2023-05-17T06:51:01.231Z,5.53
2023-05-17T06:53:05.855Z,4.03
2023-05-17T06:55:09.749Z,3.70
2023-05-17T06:57:13.073Z,3.57
2023-05-17T06:59:16.614Z,4.20
2023-05-17T07:01:20.464Z,4.10
2023-05-17T07:03:23.639Z,4.87
2023-05-17T07:05:29.188Z,3.70
2023-05-17T07:07:32.466Z,3.83
2023-05-17T07:09:36.758Z,3.30
2023-05-17T07:11:39.736Z,3.43
2023-05-17T07:13:42.528Z,3.80
2023-05-17T07:15:45.772Z,3.90
2023-05-17T07:17:48.728Z,3.87
2023-05-17T07:19:52.155Z,3.45
2023-05-17T07:21:55.165Z,3.30
2023-05-17T07:23:58.237Z,3.92
2023-05-17T07:26:02.431Z,3.60
2023-05-17T07:28:05.884Z,3.47
2023-05-17T07:30:09.866Z,3.90
2023-05-17T07:32:13.245Z,3.47
2023-05-17T07:34:16.153Z,3.17
2023-05-17T07:36:19.039Z,3.53
2023-05-17T07:38:22.333Z,2.95
2023-05-17T07:40:25.510Z,3.70
2023-05-17T07:42:29.832Z,3.90
2023-05-17T07:44:32.709Z,3.97
2023-05-17T07:46:36.368Z,3.67
2023-05-17T07:48:39.408Z,3.55
2023-05-17T07:50:43.924Z,3.38
2023-05-17T07:52:49.472Z,3.50
2023-05-17T07:54:52.529Z,3.72
2023-05-17T07:56:56.173Z,3.42
2023-05-17T07:59:00.776Z,3.33
2023-05-17T08:01:04.121Z,3.40
2023-05-17T08:03:08.624Z,3.50
2023-05-17T08:05:11.870Z,3.30
2023-05-17T08:07:14.919Z,3.38
2023-05-17T08:09:18.494Z,3.83
2023-05-17T08:11:21.602Z,3.28
2023-05-17T08:13:24.863Z,3.40
2023-05-17T08:15:30.471Z,3.40
2023-05-17T08:17:33.824Z,3.20
2023-05-17T08:19:37.723Z,3.10
2023-05-17T08:21:47.783Z,3.15
2023-05-17T08:23:51.371Z,2.85
2023-05-17T08:25:54.409Z,3.22
2023-05-17T08:27:57.570Z,3.40
2023-05-17T08:30:04.152Z,3.25
2023-05-17T08:32:11.570Z,3.50
2023-05-17T08:34:15.014Z,3.20
2023-05-17T08:36:18.108Z,3.10
2023-05-17T08:38:23.863Z,3.20
2023-05-17T08:40:27.061Z,3.33
2023-05-17T08:42:33.089Z,3.38
2023-05-17T08:44:36.444Z,3.35
2023-05-17T08:46:42.643Z,3.28
2023-05-17T08:48:52.029Z,3.15
2023-05-17T08:50:58.078Z,3.13
2023-05-17T08:53:01.286Z,4.15
2023-05-17T08:55:06.059Z,3.40
2023-05-17T08:57:14.160Z,3.78
2023-05-17T08:59:17.297Z,4.88
2023-05-17T09:01:21.453Z,5.68
2023-05-17T09:03:26.836Z,16.88
2023-05-17T09:05:31.438Z,7.75
2023-05-17T09:07:34.941Z,7.43
2023-05-17T09:09:41.735Z,3.67
2023-05-17T09:11:45.324Z,3.65
2023-05-17T09:13:48.520Z,3.30
2023-05-17T09:15:51.617Z,3.65
2023-05-17T09:17:55.674Z,2.90
2023-05-17T09:20:00.475Z,3.20
2023-05-17T09:22:06.722Z,3.08
2023-05-17T09:24:09.695Z,2.90
2023-05-17T09:26:13.685Z,3.38
2023-05-17T09:28:19.203Z,2.75
2023-05-17T09:30:29.370Z,2.88
2023-05-17T09:32:34.573Z,3.20
2023-05-17T09:34:39.176Z,2.80
2023-05-17T09:36:44.353Z,3.00
2023-05-17T09:38:55.640Z,2.67
2023-05-17T09:40:58.632Z,2.72
2023-05-17T09:43:02.174Z,2.58
2023-05-17T09:45:05.854Z,2.50
2023-05-17T09:47:11.837Z,2.63
2023-05-17T09:49:17.122Z,2.95
2023-05-17T09:51:20.119Z,2.65
2023-05-17T09:53:27.012Z,2.25
2023-05-17T09:55:35.377Z,2.53
2023-05-17T09:57:49.285Z,2.72
2023-05-17T09:59:57.730Z,2.40
2023-05-17T10:02:02.211Z,2.60
2023-05-17T10:04:05.673Z,2.13
2023-05-17T10:08:28.232Z,2.30
2023-05-17T10:10:37.774Z,2.50
2023-05-17T10:12:47.741Z,2.25
2023-05-17T10:15:08.024Z,2.20
2023-05-17T10:17:11.992Z,2.15
2023-05-17T10:19:20.309Z,2.30
2023-05-17T10:21:23.866Z,2.53
2023-05-17T10:23:31.539Z,2.38
2023-05-17T10:25:45.620Z,2.40
2023-05-17T10:27:53.053Z,2.55
2023-05-17T10:29:58.907Z,2.28
2023-05-17T10:32:05.570Z,2.40
2023-05-17T10:34:11.578Z,2.42
2023-05-17T10:36:18.073Z,2.50
2023-05-17T10:38:24.094Z,2.40
2023-05-17T10:40:31.856Z,2.10
2023-05-17T10:42:36.544Z,2.17
2023-05-17T10:44:43.033Z,2.42
2023-05-17T10:46:53.860Z,2.30
2023-05-17T10:49:00.341Z,2.45
2023-05-17T10:51:08.114Z,2.55
2023-05-17T10:53:12.275Z,2.55
2023-05-17T10:55:19.267Z,2.10
2023-05-17T10:59:59.868Z,2.03
2023-05-17T11:02:07.334Z,2.33
2023-05-17T11:04:22.597Z,2.50
2023-05-17T11:06:26.167Z,2.20
2023-05-17T11:08:29.377Z,2.47
2023-05-17T11:10:37.282Z,2.55
2023-05-17T11:12:42.527Z,2.60
2023-05-17T11:14:49.334Z,2.40
2023-05-17T11:16:59.284Z,2.50
2023-05-17T11:19:09.563Z,2.60
2023-05-17T11:21:23.868Z,2.50
2023-05-17T11:23:29.817Z,2.70
2023-05-17T11:25:35.809Z,2.20
2023-05-17T11:27:45.952Z,2.45
2023-05-17T11:29:50.357Z,2.50
2023-05-17T11:31:53.804Z,2.50
2023-05-17T11:34:00.557Z,1.95
2023-05-17T11:36:07.542Z,2.53
2023-05-17T11:38:35.706Z,2.75
2023-05-17T11:40:42.175Z,2.83
2023-05-17T11:42:48.414Z,2.67
2023-05-17T11:44:57.978Z,2.65
2023-05-17T11:47:09.678Z,3.35
2023-05-17T11:49:27.032Z,2.45
2023-05-17T11:51:54.624Z,2.90
2023-05-17T11:53:58.962Z,2.72
2023-05-17T11:56:04.780Z,2.60
2023-05-17T11:58:09.568Z,2.50
2023-05-17T12:00:17.570Z,2.95
2023-05-17T12:02:31.728Z,2.60
2023-05-17T12:04:39.023Z,2.63
2023-05-17T12:06:46.240Z,2.90
2023-05-17T12:08:49.749Z,2.58
2023-05-17T12:10:57.679Z,2.53
2023-05-17T12:13:00.752Z,2.33
2023-05-17T12:15:03.947Z,2.67
2023-05-17T12:17:10.835Z,2.80
2023-05-17T12:19:20.271Z,2.45
2023-05-17T12:21:25.198Z,2.75
2023-05-17T12:23:31.024Z,2.38
2023-05-17T12:25:34.056Z,2.45
2023-05-17T12:27:37.061Z,2.47
2023-05-17T12:29:40.683Z,2.63
2023-05-17T12:31:47.235Z,2.80
2023-05-17T12:33:51.025Z,2.35
2023-05-17T12:35:54.380Z,2.50
2023-05-17T12:37:58.918Z,2.55
2023-05-17T12:40:04.945Z,2.40
2023-05-17T12:42:17.179Z,2.67
2023-05-17T12:44:21.236Z,2.60
2023-05-17T12:46:29.372Z,2.55
2023-05-17T12:48:35.817Z,2.72
2023-05-17T12:50:42.118Z,2.50
2023-05-17T12:52:45.252Z,2.35
2023-05-17T12:55:04.176Z,2.10
2023-05-17T12:57:24.288Z,2.35
2023-05-17T12:59:29.172Z,2.60
2023-05-17T13:01:35.395Z,2.47
2023-05-17T13:03:44.608Z,2.72
2023-05-17T13:05:58.404Z,2.83
2023-05-17T13:08:22.973Z,2.72
2023-05-17T13:10:40.641Z,2.83
2023-05-17T13:12:43.802Z,2.30
2023-05-17T13:14:54.792Z,2.35
2023-05-17T13:16:58.130Z,2.97
2023-05-17T13:19:01.705Z,2.30
2023-05-17T13:21:19.864Z,2.58
2023-05-17T13:23:23.267Z,2.28
2023-05-17T13:25:27.740Z,2.80
2023-05-17T13:27:30.884Z,2.17
2023-05-17T13:29:40.727Z,2.60
2023-05-17T13:31:44.276Z,2.50
2023-05-17T13:33:58.750Z,2.53
2023-05-17T13:36:02.360Z,2.38
2023-05-17T13:38:07.183Z,2.85
2023-05-17T13:40:10.998Z,2.28
2023-05-17T13:42:15.843Z,2.85
2023-05-17T13:44:18.886Z,2.60
2023-05-17T13:46:21.986Z,3.05
2023-05-17T13:48:26.960Z,2.47
2023-05-17T13:50:30.496Z,2.78
2023-05-17T13:52:33.731Z,2.63
2023-05-17T13:54:37.097Z,2.70
2023-05-17T13:56:40.288Z,2.63
2023-05-17T13:58:48.166Z,2.53
2023-05-17T14:00:51.774Z,2.88
2023-05-17T14:02:57.205Z,2.95
2023-05-17T14:05:00.567Z,2.17
2023-05-17T14:07:21.548Z,2.55
2023-05-17T14:09:46.820Z,2.83
2023-05-17T14:11:50.060Z,2.70
2023-05-17T14:13:54.466Z,2.60
2023-05-17T14:16:08.134Z,2.90
2023-05-17T14:18:40.025Z,2.90
2023-05-17T14:21:09.537Z,2.13
2023-05-17T14:41:38.598Z,2.40
2023-05-17T15:03:43.939Z,2.60
2023-05-17T15:06:15.633Z,2.60
2023-05-17T15:08:29.754Z,2.55
2023-05-17T15:10:39.718Z,2.38
2023-05-17T15:19:01.521Z,2.47
2023-05-17T15:21:12.378Z,2.03
2023-05-17T15:24:03.696Z,2.33
2023-05-17T15:24:40.909Z,2.45
2023-05-17T15:26:18.119Z,2.60
2023-05-17T15:28:41.049Z,2.30
2023-05-17T15:34:17.528Z,2.58
2023-05-17T15:40:28.666Z,2.20
2023-05-17T15:46:27.404Z,2.30
2023-05-17T15:48:37.799Z,2.30
2023-05-17T15:50:43.494Z,2.75
2023-05-17T15:53:31.812Z,2.30
2023-05-17T16:01:23.042Z,2.60
2023-05-17T16:06:51.187Z,2.50
2023-05-17T16:11:25.680Z,2.40
2023-05-17T16:13:39.847Z,2.33
2023-05-17T16:16:01.118Z,2.35
2023-05-17T16:28:31.700Z,2.40
2023-05-17T16:30:47.660Z,2.88
2023-05-17T16:33:08.331Z,2.20
2023-05-17T16:35:14.826Z,2.53
2023-05-17T16:37:18.090Z,2.17
2023-05-17T16:39:21.027Z,2.65
2023-05-17T16:41:26.790Z,2.30
2023-05-17T16:43:52.999Z,2.40
2023-05-17T16:45:55.876Z,2.05
2023-05-17T16:47:58.865Z,2.22
2023-05-17T16:50:02.159Z,2.22
2023-05-17T16:52:05.730Z,2.40
2023-05-17T16:54:10.457Z,2.42
2023-05-17T16:56:13.257Z,2.70
2023-05-17T16:58:16.193Z,2.25
2023-05-17T17:00:21.402Z,2.28
2023-05-17T17:02:28.803Z,2.20
2023-05-17T17:04:32.091Z,2.53
2023-05-17T17:06:35.249Z,2.40
2023-05-17T17:08:38.071Z,2.50
2023-05-17T17:10:40.895Z,2.40
2023-05-17T17:12:44.000Z,2.47
2023-05-17T17:14:46.833Z,2.13
2023-05-17T17:16:51.524Z,2.05
2023-05-17T17:18:54.631Z,2.38
2023-05-17T17:20:58.211Z,2.33
2023-05-17T17:23:01.234Z,2.60
2023-05-17T17:25:04.471Z,2.00
2023-05-17T17:27:07.370Z,2.78
2023-05-17T17:29:10.348Z,2.53
2023-05-17T17:31:13.413Z,2.33
2023-05-17T17:33:19.467Z,2.13
2023-05-17T17:35:22.430Z,2.42
2023-05-17T17:37:25.286Z,2.30
2023-05-17T17:39:28.240Z,2.17
2023-05-17T17:41:32.851Z,2.03
2023-05-17T17:43:36.613Z,2.40
2023-05-17T17:45:39.508Z,2.38
2023-05-17T17:47:43.032Z,2.47
2023-05-17T17:49:47.235Z,2.17
2023-05-17T17:51:50.136Z,2.40
2023-05-17T17:53:53.643Z,2.47
2023-05-17T17:55:56.535Z,2.33
2023-05-17T17:57:59.328Z,2.38
2023-05-17T18:00:02.118Z,2.50
2023-05-17T18:02:05.027Z,2.53
2023-05-17T18:04:07.828Z,2.42
2023-05-17T18:06:12.127Z,2.30
2023-05-17T18:08:14.922Z,2.30
2023-05-17T18:10:17.704Z,2.30
2023-05-17T18:12:20.653Z,2.50
2023-05-17T18:14:23.434Z,2.20
2023-05-17T18:16:26.244Z,2.45
2023-05-17T18:18:29.093Z,2.20
2023-05-17T18:20:32.000Z,2.13
2023-05-17T18:22:36.654Z,2.10
2023-05-17T18:24:39.485Z,2.55
2023-05-17T18:26:43.857Z,2.30
2023-05-17T18:28:46.606Z,2.30
2023-05-17T18:30:49.596Z,2.20
2023-05-17T18:32:52.517Z,2.20
2023-05-17T18:34:55.913Z,2.05
2023-05-17T18:36:58.814Z,2.65
2023-05-17T18:39:02.960Z,2.58
2023-05-17T18:41:06.327Z,2.17
2023-05-17T18:43:09.156Z,2.38
2023-05-17T18:45:12.159Z,2.15
2023-05-17T18:47:15.080Z,2.17
2023-05-17T18:49:18.060Z,2.25
2023-05-17T18:51:21.152Z,2.53
2023-05-17T18:53:24.102Z,2.20
2023-05-17T18:55:28.706Z,2.53
2023-05-17T18:57:31.650Z,2.92
2023-05-17T18:59:34.459Z,2.90
2023-05-17T19:01:37.696Z,2.50
2023-05-17T19:03:40.644Z,2.22
2023-05-17T19:05:43.760Z,2.22
2023-05-17T19:07:46.648Z,2.17
2023-05-17T19:09:49.441Z,2.47
2023-05-17T19:11:53.580Z,2.30
2023-05-17T19:13:56.627Z,2.30
2023-05-17T19:16:00.338Z,2.65
2023-05-17T19:18:03.138Z,2.60
2023-05-17T19:20:06.994Z,2.43
2023-05-17T19:22:10.940Z,2.30
2023-05-17T19:24:13.744Z,2.57
2023-05-17T19:26:16.558Z,2.50
2023-05-17T19:28:20.651Z,2.47
2023-05-17T19:30:23.680Z,2.90
2023-05-17T19:32:26.903Z,2.70
2023-05-17T19:34:29.765Z,2.70
2023-05-17T19:36:32.797Z,2.70
2023-05-17T19:38:35.822Z,2.53
2023-05-17T19:40:40.622Z,2.87
2023-05-17T19:42:43.659Z,2.67
2023-05-17T19:44:47.858Z,2.47
2023-05-17T19:46:50.814Z,2.87
2023-05-17T19:48:53.725Z,2.73
2023-05-17T19:50:56.944Z,2.73
2023-05-17T19:52:59.854Z,2.60
2023-05-17T19:55:02.641Z,2.90
2023-05-17T19:57:06.001Z,2.57
2023-05-17T19:59:09.106Z,2.97
2023-05-17T20:01:13.260Z,2.73
2023-05-17T20:03:16.133Z,3.23
2023-05-17T20:05:20.008Z,3.50
2023-05-17T20:07:25.619Z,2.90
2023-05-17T20:09:30.184Z,2.50
2023-05-17T20:11:33.277Z,2.90
2023-05-17T20:13:39.992Z,3.03
2023-05-17T20:15:43.135Z,2.77
2023-05-17T20:17:47.757Z,2.70
2023-05-17T20:19:51.758Z,3.20
2023-05-17T20:21:54.794Z,3.10
2023-05-17T20:24:01.449Z,2.70
2023-05-17T20:26:04.486Z,3.07
2023-05-17T20:28:07.301Z,3.10
2023-05-17T20:30:11.034Z,3.10
2023-05-17T20:32:16.953Z,2.87
2023-05-17T20:34:22.291Z,3.20
2023-05-17T20:36:26.226Z,2.97
2023-05-17T20:38:29.131Z,3.23
2023-05-17T20:40:32.306Z,3.57
2023-05-17T20:42:37.776Z,3.40
2023-05-17T20:44:43.341Z,3.03
2023-05-17T20:46:46.325Z,2.93
2023-05-17T20:48:50.506Z,3.40
2023-05-17T20:50:56.893Z,3.17
2023-05-17T20:53:00.439Z,3.03
2023-05-17T20:55:05.186Z,3.13
2023-05-17T20:57:08.658Z,3.30
2023-05-17T20:59:12.715Z,3.60
2023-05-17T21:01:18.062Z,3.33
2023-05-17T21:03:21.144Z,3.50
2023-05-17T21:05:28.403Z,3.60
2023-05-17T21:07:35.203Z,3.87
2023-05-17T21:09:38.255Z,3.30
2023-05-17T21:11:44.458Z,3.20
2023-05-17T21:13:47.721Z,3.60
2023-05-17T21:15:50.804Z,3.30
2023-05-17T21:17:53.949Z,3.57
2023-05-17T21:19:57.763Z,3.80
2023-05-17T21:22:00.977Z,4.03
2023-05-17T21:24:05.932Z,3.50
2023-05-17T21:26:08.951Z,3.90
2023-05-17T21:28:15.398Z,4.20
2023-05-17T21:30:18.586Z,4.63
2023-05-17T21:32:21.627Z,4.30
2023-05-17T21:34:24.449Z,4.00
2023-05-17T21:36:27.325Z,3.87
2023-05-17T21:38:30.703Z,4.40
2023-05-17T21:40:35.103Z,4.07
2023-05-17T21:42:38.213Z,3.83
2023-05-17T21:44:41.392Z,4.00
2023-05-17T21:46:44.820Z,3.80
2023-05-17T21:48:47.917Z,3.77
2023-05-17T21:50:51.097Z,3.83
2023-05-17T21:52:53.965Z,4.27
2023-05-17T21:54:56.832Z,3.80
2023-05-17T21:57:01.056Z,3.93
2023-05-17T21:59:04.143Z,3.80
2023-05-17T22:01:07.251Z,4.37
2023-05-17T22:03:10.509Z,3.53
2023-05-17T22:05:13.601Z,5.63
2023-05-17T22:07:16.884Z,4.03
2023-05-17T22:09:20.038Z,3.83
2023-05-17T22:11:23.771Z,3.47
2023-05-17T22:13:28.914Z,4.07
2023-05-17T22:15:31.805Z,3.97
2023-05-17T22:17:43.013Z,3.87
2023-05-17T22:19:51.727Z,3.67
2023-05-17T22:21:54.606Z,3.77
2023-05-17T22:23:57.526Z,3.70
2023-05-17T22:26:00.689Z,3.70
2023-05-17T22:28:03.925Z,3.63
2023-05-17T22:30:09.361Z,3.97
2023-05-17T22:32:12.369Z,3.60
2023-05-17T22:34:15.605Z,4.40
2023-05-17T22:36:19.092Z,4.20
2023-05-17T22:38:23.216Z,3.57
2023-05-17T22:40:26.310Z,3.97
2023-05-17T22:42:29.224Z,4.03
2023-05-17T22:44:33.634Z,3.60
2023-05-17T22:46:41.909Z,3.70
2023-05-17T22:48:44.777Z,4.10
2023-05-17T22:50:47.925Z,4.30
2023-05-17T22:52:50.796Z,4.27
2023-05-17T22:54:53.649Z,4.53
2023-05-17T22:56:57.034Z,3.80
2023-05-17T22:58:59.900Z,4.30
2023-05-17T23:01:03.084Z,4.03
2023-05-17T23:03:07.330Z,4.10
2023-05-17T23:05:11.246Z,4.23
2023-05-17T23:07:14.961Z,4.60
2023-05-17T23:09:18.354Z,4.53
2023-05-17T23:11:21.370Z,4.50
2023-05-17T23:13:24.762Z,4.47
2023-05-17T23:15:28.305Z,4.17
2023-05-17T23:17:32.717Z,4.80
2023-05-17T23:19:37.490Z,4.63
2023-05-17T23:21:40.464Z,4.77
2023-05-17T23:23:43.424Z,5.10
2023-05-17T23:25:48.501Z,4.97
2023-05-17T23:27:51.457Z,4.53
2023-05-17T23:29:55.382Z,4.80
2023-05-17T23:31:58.906Z,4.50
2023-05-17T23:34:01.960Z,3.67
2023-05-17T23:36:07.155Z,3.97
2023-05-17T23:38:10.319Z,4.43
2023-05-17T23:40:14.563Z,4.23
2023-05-17T23:42:18.665Z,4.20
2023-05-17T23:44:21.449Z,4.60
2023-05-17T23:46:24.645Z,5.17
2023-05-17T23:48:28.369Z,4.73
2023-05-17T23:50:31.140Z,4.50
2023-05-17T23:52:39.004Z,4.60
2023-05-17T23:54:42.674Z,4.90
2023-05-17T23:56:45.591Z,4.90
2023-05-17T23:58:50.479Z,5.00
